createdAt,value
2018-12-09T00:00:05.554Z,91
2018-12-09T00:01:05.500Z,92
2018-12-09T00:02:05.531Z,92
2018-12-09T00:03:05.765Z,92
2018-12-09T00:04:06.002Z,92
2018-12-09T00:05:05.715Z,92
2018-12-09T00:06:05.972Z,92
2018-12-09T00:07:05.938Z,92
2018-12-09T00:08:05.963Z,92
2018-12-09T00:09:05.921Z,92
2018-12-09T00:10:07.842Z,92
2018-12-09T00:11:05.572Z,92
2018-12-09T00:12:05.622Z,92
2018-12-09T00:13:06.109Z,92
2018-12-09T00:14:05.936Z,92
2018-12-09T00:15:05.970Z,92
2018-12-09T00:16:05.596Z,92
2018-12-09T00:17:05.982Z,92
2018-12-09T00:18:05.984Z,92
2018-12-09T00:19:05.933Z,92
2018-12-09T00:20:06.566Z,92
2018-12-09T00:21:05.741Z,92
2018-12-09T00:22:05.576Z,92
2018-12-09T00:23:05.821Z,92
2018-12-09T00:24:06.003Z,92
2018-12-09T00:25:05.606Z,92
2018-12-09T00:26:05.934Z,92
2018-12-09T00:27:05.629Z,92
2018-12-09T00:28:06.135Z,92
2018-12-09T00:29:06.087Z,92
2018-12-09T00:30:05.926Z,92
2018-12-09T00:31:05.741Z,92
2018-12-09T00:32:05.794Z,92
2018-12-09T00:33:06.101Z,92
2018-12-09T00:34:06.032Z,92
2018-12-09T00:35:05.642Z,92
2018-12-09T00:36:05.604Z,92
2018-12-09T00:37:06.004Z,92
2018-12-09T00:41:25.038Z,92
2018-12-09T00:41:33.764Z,92
2018-12-09T00:42:34.168Z,92
2018-12-09T00:43:34.186Z,92
2018-12-09T00:44:33.964Z,92
2018-12-09T00:45:34.148Z,92
2018-12-09T00:46:34.132Z,92
2018-12-09T00:47:33.893Z,92
2018-12-09T00:48:35.414Z,92
2018-12-09T00:49:34.060Z,92
2018-12-09T00:51:46.785Z,92
2018-12-09T00:52:47.230Z,92
2018-12-09T00:53:47.227Z,92
2018-12-09T00:54:47.210Z,92
2018-12-09T00:55:47.281Z,92
2018-12-09T00:56:47.284Z,93
2018-12-09T00:57:47.044Z,93
2018-12-09T00:58:46.845Z,93
2018-12-09T00:59:47.242Z,93
2018-12-09T01:00:46.851Z,93
2018-12-09T01:01:47.232Z,92
2018-12-09T01:02:47.282Z,92
2018-12-09T01:03:47.192Z,92
2018-12-09T01:04:47.183Z,92
2018-12-09T01:05:47.181Z,92
2018-12-09T01:06:46.839Z,92
2018-12-09T01:07:46.841Z,92
2018-12-09T01:08:47.026Z,92
2018-12-09T01:09:47.212Z,91
2018-12-09T01:10:49.075Z,91
2018-12-09T01:11:47.026Z,91
2018-12-09T01:12:47.270Z,91
2018-12-09T01:13:47.140Z,91
2018-12-09T01:14:47.284Z,91
2018-12-09T01:15:47.222Z,91
2018-12-09T01:16:47.327Z,89
2018-12-09T01:17:47.412Z,89
2018-12-09T01:18:47.287Z,89
2018-12-09T01:19:47.445Z,89
2018-12-09T01:20:47.344Z,89
2018-12-09T01:21:47.084Z,89
2018-12-09T01:22:47.066Z,89
2018-12-09T01:23:46.870Z,89
2018-12-09T01:24:46.882Z,89
2018-12-09T01:25:47.315Z,89
2018-12-09T01:26:47.276Z,89
2018-12-09T01:27:47.327Z,89
2018-12-09T01:29:02.303Z,89
2018-12-09T01:29:46.971Z,87
2018-12-09T01:30:47.302Z,87
2018-12-09T01:31:46.888Z,87
2018-12-09T01:32:47.136Z,87
2018-12-09T01:33:46.897Z,87
2018-12-09T01:34:47.028Z,85
2018-12-09T01:35:47.408Z,85
2018-12-09T01:36:46.900Z,85
2018-12-09T01:37:47.243Z,85
2018-12-09T01:38:47.859Z,85
2018-12-09T01:39:46.910Z,85
2018-12-09T01:40:47.069Z,85
2018-12-09T01:41:47.447Z,85
2018-12-09T01:42:47.338Z,85
2018-12-09T01:43:47.260Z,85
2018-12-09T01:44:47.057Z,85
2018-12-09T01:45:47.127Z,85
2018-12-09T01:46:47.478Z,85
2018-12-09T01:47:47.094Z,84
2018-12-09T01:48:47.394Z,84
2018-12-09T01:49:47.370Z,83
2018-12-09T01:50:47.342Z,83
2018-12-09T01:51:47.365Z,83
2018-12-09T01:52:46.899Z,83
2018-12-09T01:53:47.371Z,83
2018-12-09T01:54:46.975Z,83
2018-12-09T01:55:47.325Z,83
2018-12-09T01:56:47.290Z,83
2018-12-09T01:57:47.134Z,83
2018-12-09T01:58:47.375Z,83
2018-12-09T01:59:46.933Z,83
2018-12-09T02:00:47.123Z,83
2018-12-09T02:01:47.430Z,83
2018-12-09T02:02:47.109Z,83
2018-12-09T02:03:47.185Z,83
2018-12-09T02:04:46.965Z,83
2018-12-09T02:05:47.316Z,83
2018-12-09T02:06:47.077Z,83
2018-12-09T02:07:47.057Z,84
2018-12-09T02:08:47.344Z,84
2018-12-09T02:09:47.027Z,84
2018-12-09T02:10:47.404Z,84
2018-12-09T02:11:47.421Z,84
2018-12-09T02:12:46.986Z,84
2018-12-09T02:13:47.199Z,84
2018-12-09T02:14:47.433Z,84
2018-12-09T02:15:47.471Z,84
2018-12-09T02:21:10.550Z,84
2018-12-09T02:21:36.614Z,84
2018-12-09T02:22:37.641Z,84
2018-12-09T02:23:37.210Z,85
2018-12-09T02:24:37.465Z,85
2018-12-09T02:25:37.633Z,85
2018-12-09T02:26:37.632Z,85
2018-12-09T02:27:37.733Z,85
2018-12-09T02:28:37.299Z,85
2018-12-09T02:29:37.440Z,85
2018-12-09T02:30:37.807Z,85
2018-12-09T02:31:37.266Z,85
2018-12-09T02:32:37.253Z,85
2018-12-09T02:33:37.415Z,85
2018-12-09T02:34:37.242Z,85
2018-12-09T02:35:37.670Z,85
2018-12-09T02:36:37.650Z,85
2018-12-09T02:37:37.712Z,85
2018-12-09T02:38:37.767Z,85
2018-12-09T02:39:39.604Z,85
2018-12-09T02:40:38.091Z,85
2018-12-09T02:41:37.477Z,85
2018-12-09T02:42:37.490Z,85
2018-12-09T02:43:37.237Z,85
2018-12-09T02:44:37.686Z,85
2018-12-09T02:45:37.458Z,86
2018-12-09T02:46:37.648Z,86
2018-12-09T02:47:37.914Z,86
2018-12-09T02:48:37.445Z,86
2018-12-09T02:50:06.189Z,86
2018-12-09T02:50:37.812Z,86
2018-12-09T02:51:37.486Z,86
2018-12-09T02:52:37.463Z,86
2018-12-09T02:53:37.717Z,85
2018-12-09T02:54:37.707Z,85
2018-12-09T02:55:37.483Z,85
2018-12-09T02:56:37.506Z,84
2018-12-09T02:57:37.803Z,84
2018-12-09T02:58:37.935Z,84
2018-12-09T02:59:37.516Z,84
2018-12-09T03:00:38.760Z,84
2018-12-09T03:01:37.557Z,84
2018-12-09T03:02:37.696Z,84
2018-12-09T03:03:37.738Z,82
2018-12-09T03:04:37.684Z,82
2018-12-09T03:05:37.340Z,82
2018-12-09T03:06:37.481Z,81
2018-12-09T03:07:37.348Z,81
2018-12-09T03:08:37.466Z,81
2018-12-09T03:09:37.726Z,81
2018-12-09T03:20:27.998Z,81
2018-12-09T03:21:24.872Z,83
2018-12-09T03:22:24.817Z,83
2018-12-09T03:23:24.797Z,83
2018-12-09T03:24:24.706Z,86
2018-12-09T03:25:24.881Z,86
2018-12-09T03:26:24.781Z,88
2018-12-09T03:27:24.360Z,88
2018-12-09T03:28:24.818Z,88
2018-12-09T03:29:24.600Z,88
2018-12-09T03:44:41.601Z,87
2018-12-09T03:45:43.410Z,87
2018-12-09T03:46:41.364Z,87
2018-12-09T03:47:41.207Z,87
2018-12-09T03:48:41.400Z,87
2018-12-09T03:49:41.173Z,87
2018-12-09T03:50:42.323Z,87
2018-12-09T03:51:41.409Z,87
2018-12-09T03:52:41.605Z,87
2018-12-09T03:53:41.384Z,87
2018-12-09T03:54:42.275Z,86
2018-12-09T03:55:41.605Z,86
2018-12-09T03:56:41.588Z,86
2018-12-09T03:57:41.617Z,86
2018-12-09T03:58:41.399Z,86
2018-12-09T03:59:41.752Z,84
2018-12-09T04:00:41.669Z,84
2018-12-09T04:01:41.704Z,84
2018-12-09T04:02:41.832Z,84
2018-12-09T04:03:41.369Z,84
2018-12-09T04:04:41.679Z,84
2018-12-09T04:05:41.379Z,84
2018-12-09T04:06:41.250Z,84
2018-12-09T04:07:41.640Z,84
2018-12-09T04:08:41.366Z,84
2018-12-09T04:09:41.661Z,84
2018-12-09T04:10:41.233Z,84
2018-12-09T04:11:41.219Z,84
2018-12-09T04:12:41.601Z,85
2018-12-09T04:13:41.704Z,85
2018-12-09T04:14:42.422Z,85
2018-12-09T04:15:41.229Z,85
2018-12-09T04:16:41.225Z,85
2018-12-09T04:17:41.409Z,85
2018-12-09T04:18:41.294Z,85
2018-12-09T04:19:41.679Z,85
2018-12-09T04:20:41.272Z,85
2018-12-09T04:21:41.410Z,85
2018-12-09T04:22:41.719Z,85
2018-12-09T04:23:41.595Z,85
2018-12-09T04:24:41.662Z,85
2018-12-09T04:25:41.653Z,85
2018-12-09T04:26:41.261Z,85
2018-12-09T04:27:41.394Z,85
2018-12-09T04:28:41.735Z,85
2018-12-09T04:29:41.623Z,85
2018-12-09T04:30:41.762Z,85
2018-12-09T04:31:41.761Z,85
2018-12-09T04:32:52.392Z,85
2018-12-09T04:33:41.316Z,85
2018-12-09T04:34:41.271Z,85
2018-12-09T04:35:41.698Z,85
2018-12-09T04:36:41.654Z,85
2018-12-09T04:37:41.668Z,85
2018-12-09T04:38:41.290Z,85
2018-12-09T04:39:41.284Z,85
2018-12-09T04:40:41.741Z,84
2018-12-09T04:41:41.652Z,84
2018-12-09T04:43:06.221Z,84
2018-12-09T04:43:41.313Z,84
2018-12-09T04:44:41.305Z,84
2018-12-09T04:45:41.692Z,84
2018-12-09T04:46:41.282Z,84
2018-12-09T04:47:41.748Z,84
2018-12-09T04:48:41.319Z,84
2018-12-09T04:49:41.364Z,84
2018-12-09T04:50:41.453Z,86
2018-12-09T04:51:42.497Z,86
2018-12-09T04:52:41.258Z,87
2018-12-09T04:54:54.530Z,87
2018-12-09T04:55:54.791Z,87
2018-12-09T04:56:54.392Z,87
2018-12-09T04:57:54.805Z,87
2018-12-09T04:58:54.873Z,87
2018-12-09T04:59:54.717Z,87
2018-12-09T05:00:54.799Z,88
2018-12-09T05:01:54.662Z,88
2018-12-09T05:02:54.801Z,88
2018-12-09T05:03:54.804Z,88
2018-12-09T05:04:54.575Z,88
2018-12-09T05:05:54.803Z,89
2018-12-09T05:06:54.624Z,89
2018-12-09T05:07:54.505Z,89
2018-12-09T05:08:54.444Z,90
2018-12-09T05:09:54.792Z,90
2018-12-09T05:10:54.556Z,90
2018-12-09T05:11:54.496Z,90
2018-12-09T05:17:50.476Z,90
2018-12-09T05:18:00.701Z,90
2018-12-09T05:19:00.700Z,91
2018-12-09T05:20:00.662Z,91
2018-12-09T05:21:00.744Z,91
2018-12-09T05:22:00.776Z,91
2018-12-09T05:23:00.533Z,91
2018-12-09T05:24:00.397Z,91
2018-12-09T05:25:00.270Z,91
2018-12-09T05:26:00.190Z,91
2018-12-09T05:28:13.542Z,91
2018-12-09T05:29:13.725Z,90
2018-12-09T05:30:13.385Z,90
2018-12-09T05:31:13.777Z,89
2018-12-09T05:32:13.827Z,89
2018-12-09T05:33:13.410Z,89
2018-12-09T05:34:13.456Z,89
2018-12-09T05:35:13.851Z,89
2018-12-09T05:36:13.740Z,88
2018-12-09T05:37:13.881Z,88
2018-12-09T05:38:13.539Z,88
2018-12-09T05:39:13.405Z,88
2018-12-09T05:40:13.595Z,88
2018-12-09T05:41:13.605Z,87
2018-12-09T05:42:13.625Z,87
2018-12-09T05:43:13.579Z,87
2018-12-09T05:44:13.482Z,87
2018-12-09T05:45:13.475Z,87
2018-12-09T05:46:13.607Z,87
2018-12-09T05:49:27.364Z,87
2018-12-09T05:49:40.981Z,87
2018-12-09T05:50:41.444Z,87
2018-12-09T05:51:41.476Z,86
2018-12-09T05:52:42.059Z,86
2018-12-09T05:53:41.376Z,85
2018-12-09T05:54:41.409Z,85
2018-12-09T05:55:41.523Z,85
2018-12-09T05:56:41.694Z,85
2018-12-09T05:57:41.175Z,85
2018-12-09T05:59:54.638Z,85
2018-12-09T06:00:54.737Z,85
2018-12-09T06:01:54.628Z,85
2018-12-09T06:02:54.463Z,85
2018-12-09T06:03:54.233Z,85
2018-12-09T06:04:54.303Z,85
2018-12-09T06:05:54.250Z,85
2018-12-09T06:06:54.687Z,84
2018-12-09T06:07:54.766Z,84
2018-12-09T06:08:54.614Z,84
2018-12-09T06:09:56.805Z,85
2018-12-09T06:10:54.597Z,85
2018-12-09T06:11:54.407Z,85
2018-12-09T06:12:54.663Z,85
2018-12-09T06:13:54.691Z,85
2018-12-09T06:14:54.510Z,85
2018-12-09T06:15:54.325Z,85
2018-12-09T06:16:54.449Z,86
2018-12-09T06:17:54.457Z,86
2018-12-09T06:18:54.269Z,86
2018-12-09T06:19:54.446Z,87
2018-12-09T06:20:54.491Z,87
2018-12-09T06:21:54.479Z,87
2018-12-09T06:22:54.248Z,87
2018-12-09T06:23:54.474Z,87
2018-12-09T06:24:54.697Z,87
2018-12-09T06:25:54.550Z,87
2018-12-09T06:26:54.753Z,88
2018-12-09T06:27:54.265Z,88
2018-12-09T06:28:54.284Z,88
2018-12-09T06:29:56.083Z,89
2018-12-09T06:30:54.695Z,89
2018-12-09T06:31:54.798Z,89
2018-12-09T06:32:54.783Z,89
2018-12-09T06:33:54.353Z,89
2018-12-09T06:34:54.389Z,89
2018-12-09T06:35:54.323Z,89
2018-12-09T06:36:54.801Z,90
2018-12-09T06:37:54.326Z,90
2018-12-09T06:38:54.545Z,90
2018-12-09T06:39:55.045Z,90
2018-12-09T06:40:54.460Z,90
2018-12-09T06:41:54.717Z,90
2018-12-09T06:42:54.296Z,91
2018-12-09T06:43:54.728Z,91
2018-12-09T06:44:54.320Z,91
2018-12-09T06:45:54.749Z,91
2018-12-09T06:46:54.679Z,91
2018-12-09T06:47:54.800Z,92
2018-12-09T06:48:54.779Z,92
2018-12-09T06:49:55.461Z,92
2018-12-09T06:50:54.327Z,92
2018-12-09T06:51:54.702Z,92
2018-12-09T06:52:54.309Z,93
2018-12-09T06:53:54.541Z,93
2018-12-09T06:54:54.859Z,92
2018-12-09T06:55:54.709Z,92
2018-12-09T06:56:54.771Z,92
2018-12-09T06:57:54.530Z,93
2018-12-09T06:58:54.804Z,93
2018-12-09T06:59:55.456Z,92
2018-12-09T07:00:54.394Z,92
2018-12-09T07:01:54.834Z,92
2018-12-09T07:02:54.380Z,92
2018-12-09T07:03:54.399Z,92
2018-12-09T07:04:54.776Z,92
2018-12-09T07:05:54.704Z,92
2018-12-09T07:06:54.819Z,92
2018-12-09T07:07:54.746Z,91
2018-12-09T07:08:54.345Z,91
2018-12-09T07:09:56.564Z,91
2018-12-09T07:10:54.742Z,91
2018-12-09T07:11:54.888Z,91
2018-12-09T07:12:54.801Z,91
2018-12-09T07:13:54.540Z,91
2018-12-09T07:14:54.544Z,91
2018-12-09T07:15:54.766Z,91
2018-12-09T07:16:54.542Z,91
2018-12-09T07:17:54.391Z,92
2018-12-09T07:18:54.548Z,92
2018-12-09T07:19:54.754Z,92
2018-12-09T07:20:54.865Z,92
2018-12-09T07:21:54.526Z,92
2018-12-09T07:22:54.484Z,92
2018-12-09T07:23:54.845Z,92
2018-12-09T07:24:54.591Z,92
2018-12-09T07:25:54.590Z,92
2018-12-09T07:26:54.584Z,92
2018-12-09T07:28:04.864Z,92
2018-12-09T07:28:54.956Z,92
2018-12-09T07:30:01.780Z,92
2018-12-09T07:30:54.792Z,92
2018-12-09T07:31:54.565Z,92
2018-12-09T07:32:54.791Z,92
2018-12-09T07:33:54.829Z,92
2018-12-09T07:34:54.400Z,92
2018-12-09T07:35:54.442Z,92
2018-12-09T07:36:54.827Z,92
2018-12-09T07:39:59.703Z,92
2018-12-09T07:40:59.263Z,92
2018-12-09T07:41:59.366Z,92
2018-12-09T07:42:59.720Z,92
2018-12-09T07:43:59.188Z,92
2018-12-09T07:45:00.206Z,92
2018-12-09T07:45:59.365Z,92
2018-12-09T07:46:59.395Z,92
2018-12-09T07:47:59.674Z,92
2018-12-09T07:48:59.424Z,92
2018-12-09T07:49:59.397Z,92
2018-12-09T07:50:59.202Z,92
2018-12-09T07:51:59.701Z,92
2018-12-09T07:52:59.430Z,92
2018-12-09T07:53:59.201Z,92
2018-12-09T07:54:59.654Z,92
2018-12-09T07:55:59.261Z,92
2018-12-09T07:56:59.758Z,92
2018-12-09T07:58:01.755Z,92
2018-12-09T07:58:59.718Z,91
2018-12-09T07:59:59.249Z,91
2018-12-09T08:00:59.327Z,91
2018-12-09T08:01:59.448Z,91
2018-12-09T08:02:59.485Z,91
2018-12-09T08:03:59.641Z,91
2018-12-09T08:04:59.441Z,91
2018-12-09T08:05:59.432Z,91
2018-12-09T08:06:59.801Z,91
2018-12-09T08:07:59.745Z,91
2018-12-09T08:08:59.303Z,91
2018-12-09T08:09:59.739Z,91
2018-12-09T08:10:59.498Z,91
2018-12-09T08:11:59.364Z,91
2018-12-09T08:12:59.819Z,91
2018-12-09T08:13:59.761Z,91
2018-12-09T08:14:59.630Z,91
2018-12-09T08:15:59.287Z,91
2018-12-09T08:17:00.370Z,91
2018-12-09T08:17:59.787Z,91
2018-12-09T08:18:59.302Z,91
2018-12-09T08:19:59.729Z,91
2018-12-09T08:20:59.755Z,91
2018-12-09T08:21:59.686Z,91
2018-12-09T08:22:59.838Z,91
2018-12-09T08:23:59.298Z,91
2018-12-09T08:24:59.289Z,91
2018-12-09T08:25:59.717Z,91
2018-12-09T08:27:00.421Z,91
2018-12-09T08:27:59.806Z,91
2018-12-09T08:28:59.526Z,91
2018-12-09T08:29:59.855Z,91
2018-12-09T08:30:59.344Z,91
2018-12-09T08:31:59.522Z,91
2018-12-09T08:32:59.555Z,91
2018-12-09T08:33:59.495Z,91
2018-12-09T08:34:59.738Z,91
2018-12-09T08:35:59.752Z,91
2018-12-09T08:36:59.467Z,91
2018-12-09T08:37:59.701Z,91
2018-12-09T08:38:59.489Z,91
2018-12-09T08:39:59.349Z,91
2018-12-09T08:40:59.338Z,91
2018-12-09T08:41:59.368Z,91
2018-12-09T08:42:59.395Z,91
2018-12-09T08:43:59.573Z,91
2018-12-09T08:45:00.127Z,91
2018-12-09T08:45:59.617Z,91
2018-12-09T08:46:59.694Z,91
2018-12-09T08:47:59.744Z,91
2018-12-09T08:49:00.284Z,91
2018-12-09T08:49:59.596Z,91
2018-12-09T08:50:59.567Z,91
2018-12-09T08:51:59.764Z,91
2018-12-09T08:53:01.791Z,91
2018-12-09T08:53:59.730Z,91
2018-12-09T08:54:59.818Z,91
2018-12-09T08:55:59.373Z,91
2018-12-09T08:56:59.842Z,91
2018-12-09T08:57:59.890Z,91
2018-12-09T08:58:59.613Z,91
2018-12-09T09:00:00.073Z,91
2018-12-09T09:00:59.405Z,91
2018-12-09T09:01:59.556Z,91
2018-12-09T09:02:59.627Z,91
2018-12-09T09:03:59.555Z,91
2018-12-09T09:04:59.569Z,91
2018-12-09T09:05:59.399Z,91
2018-12-09T09:06:59.773Z,90
2018-12-09T09:07:59.621Z,90
2018-12-09T09:08:59.808Z,90
2018-12-09T09:09:59.853Z,91
2018-12-09T09:20:56.320Z,91
2018-12-09T09:21:52.970Z,92
2018-12-09T09:22:53.070Z,92
2018-12-09T09:23:53.204Z,92
2018-12-09T09:24:53.472Z,92
2018-12-09T09:25:53.426Z,92
2018-12-09T09:26:53.303Z,92
2018-12-09T09:27:53.243Z,92
2018-12-09T09:28:53.386Z,92
2018-12-09T09:29:53.086Z,92
2018-12-09T09:30:53.086Z,92
2018-12-09T09:31:53.255Z,92
2018-12-09T09:32:53.017Z,92
2018-12-09T09:33:53.120Z,92
2018-12-09T09:34:53.200Z,92
2018-12-09T09:35:53.482Z,92
2018-12-09T09:36:53.360Z,92
2018-12-09T09:37:53.449Z,91
2018-12-09T09:38:53.466Z,91
2018-12-09T09:39:53.141Z,91
2018-12-09T09:40:53.145Z,91
2018-12-09T09:41:53.411Z,91
2018-12-09T09:42:53.424Z,91
2018-12-09T09:43:53.094Z,91
2018-12-09T09:44:53.290Z,91
2018-12-09T09:45:53.496Z,91
2018-12-09T09:46:53.498Z,91
2018-12-09T09:48:09.209Z,91
2018-12-09T09:48:53.499Z,91
2018-12-09T09:49:53.465Z,91
2018-12-09T09:50:53.230Z,91
2018-12-09T09:51:53.460Z,91
2018-12-09T09:52:53.416Z,91
2018-12-09T09:53:53.210Z,91
2018-12-09T09:54:53.242Z,91
2018-12-09T09:55:53.071Z,91
2018-12-09T09:56:53.232Z,91
2018-12-09T09:57:53.960Z,90
2018-12-09T09:58:53.080Z,90
2018-12-09T09:59:53.476Z,90
2018-12-09T10:00:53.286Z,91
2018-12-09T10:01:53.829Z,91
2018-12-09T10:02:53.498Z,91
2018-12-09T10:03:53.207Z,91
2018-12-09T10:04:53.079Z,91
2018-12-09T10:05:54.506Z,91
2018-12-09T10:06:53.253Z,91
2018-12-09T10:07:53.194Z,91
2018-12-09T10:08:53.452Z,91
2018-12-09T10:09:53.117Z,91
2018-12-09T10:10:53.349Z,90
2018-12-09T10:11:53.125Z,90
2018-12-09T10:12:53.103Z,90
2018-12-09T10:13:53.110Z,90
2018-12-09T10:14:53.091Z,90
2018-12-09T10:15:53.524Z,90
2018-12-09T10:16:53.535Z,90
2018-12-09T10:17:53.628Z,90
2018-12-09T10:18:54.108Z,90
2018-12-09T10:19:53.465Z,90
2018-12-09T10:20:53.287Z,90
2018-12-09T10:21:53.520Z,90
2018-12-09T10:22:53.551Z,90
2018-12-09T10:23:53.097Z,90
2018-12-09T10:24:53.309Z,90
2018-12-09T10:25:53.544Z,91
2018-12-09T10:26:53.130Z,91
2018-12-09T10:27:53.641Z,91
2018-12-09T10:28:53.264Z,91
2018-12-09T10:29:53.621Z,91
2018-12-09T10:30:53.291Z,92
2018-12-09T10:31:53.066Z,92
2018-12-09T10:32:53.300Z,92
2018-12-09T10:33:53.643Z,92
2018-12-09T10:34:53.561Z,92
2018-12-09T10:35:53.962Z,92
2018-12-09T10:36:53.094Z,92
2018-12-09T10:37:53.591Z,92
2018-12-09T10:38:53.541Z,92
2018-12-09T10:39:53.607Z,92
2018-12-09T10:40:53.555Z,92
2018-12-09T10:41:53.532Z,92
2018-12-09T10:42:53.301Z,92
2018-12-09T10:43:53.555Z,92
2018-12-09T10:44:53.720Z,92
2018-12-09T10:46:46.050Z,92
2018-12-09T10:46:59.162Z,92
2018-12-09T10:48:01.055Z,93
2018-12-09T10:49:00.276Z,93
2018-12-09T10:50:00.484Z,93
2018-12-09T10:51:00.505Z,93
2018-12-09T10:52:00.432Z,93
2018-12-09T10:53:00.025Z,93
2018-12-09T10:54:00.243Z,93
2018-12-09T10:55:00.188Z,93
2018-12-09T10:56:00.519Z,93
2018-12-09T10:57:00.237Z,93
2018-12-09T10:58:00.051Z,93
2018-12-09T10:59:00.404Z,93
2018-12-09T11:00:00.215Z,93
2018-12-09T11:01:00.400Z,93
2018-12-09T11:02:00.588Z,93
2018-12-09T11:03:00.476Z,93
2018-12-09T11:04:00.450Z,93
2018-12-09T11:05:00.480Z,93
2018-12-09T11:06:01.299Z,93
2018-12-09T11:07:00.475Z,93
2018-12-09T11:08:00.233Z,93
2018-12-09T11:09:00.224Z,93
2018-12-09T11:10:00.148Z,93
2018-12-09T11:11:00.497Z,93
2018-12-09T11:12:00.091Z,94
2018-12-09T11:13:00.095Z,94
2018-12-09T11:14:00.077Z,94
2018-12-09T11:15:00.581Z,94
2018-12-09T11:30:15.483Z,93
2018-12-09T11:31:15.701Z,93
2018-12-09T11:32:15.238Z,93
2018-12-09T11:33:15.213Z,93
2018-12-09T11:34:15.645Z,93
2018-12-09T11:35:15.250Z,92
2018-12-09T11:36:15.643Z,92
2018-12-09T11:37:15.427Z,92
2018-12-09T11:38:15.426Z,92
2018-12-09T11:39:15.654Z,92
2018-12-09T11:40:15.645Z,92
2018-12-09T11:41:15.232Z,92
2018-12-09T11:42:15.645Z,92
2018-12-09T11:43:15.293Z,92
2018-12-09T11:44:15.720Z,92
2018-12-09T11:45:15.844Z,92
2018-12-09T11:46:15.408Z,92
2018-12-09T11:47:15.701Z,92
2018-12-09T11:48:15.641Z,92
2018-12-09T11:49:15.825Z,92
2018-12-09T11:50:15.725Z,92
2018-12-09T11:51:15.648Z,92
2018-12-09T11:52:15.676Z,92
2018-12-09T11:53:15.680Z,92
2018-12-09T11:54:15.712Z,92
2018-12-09T11:55:15.445Z,92
2018-12-09T11:56:15.436Z,92
2018-12-09T11:57:15.954Z,92
2018-12-09T11:58:15.772Z,92
2018-12-09T11:59:15.459Z,92
2018-12-09T12:00:15.727Z,92
2018-12-09T12:01:15.317Z,92
2018-12-09T12:02:19.864Z,92
2018-12-09T12:03:15.456Z,92
2018-12-09T12:04:15.707Z,92
2018-12-09T12:05:15.685Z,92
2018-12-09T12:06:15.739Z,92
2018-12-09T12:07:15.344Z,92
2018-12-09T12:08:15.737Z,93
2018-12-09T12:09:15.318Z,93
2018-12-09T12:10:15.300Z,92
2018-12-09T12:11:15.460Z,92
2018-12-09T12:12:15.707Z,92
2018-12-09T12:13:15.814Z,92
2018-12-09T12:14:15.527Z,92
2018-12-09T12:15:15.473Z,92
2018-12-09T12:16:15.720Z,92
2018-12-09T12:17:15.772Z,92
2018-12-09T12:18:15.502Z,92
2018-12-09T12:19:15.702Z,92
2018-12-09T12:20:15.777Z,93
2018-12-09T12:21:15.516Z,93
2018-12-09T12:22:15.550Z,93
2018-12-09T12:23:15.840Z,92
2018-12-09T12:24:15.746Z,92
2018-12-09T12:25:15.486Z,92
2018-12-09T12:26:15.297Z,92
2018-12-09T12:27:15.689Z,92
2018-12-09T12:28:15.654Z,92
2018-12-09T12:29:16.311Z,92
2018-12-09T12:30:15.669Z,92
2018-12-09T12:31:15.837Z,92
2018-12-09T12:32:15.496Z,92
2018-12-09T12:33:16.001Z,92
2018-12-09T12:34:15.762Z,92
2018-12-09T12:35:16.431Z,92
2018-12-09T12:36:15.338Z,92
2018-12-09T12:37:15.846Z,92
2018-12-09T12:38:15.417Z,92
2018-12-09T12:39:15.721Z,92
2018-12-09T12:40:15.888Z,92
2018-12-09T12:41:15.540Z,92
2018-12-09T12:42:15.706Z,92
2018-12-09T12:43:15.488Z,92
2018-12-09T12:44:15.780Z,92
2018-12-09T12:45:15.354Z,92
2018-12-09T12:46:15.524Z,92
2018-12-09T12:47:15.426Z,92
2018-12-09T12:48:15.731Z,92
2018-12-09T12:49:15.760Z,92
2018-12-09T12:50:15.757Z,92
2018-12-09T12:51:27.858Z,92
2018-12-09T12:52:15.613Z,92
2018-12-09T12:53:15.929Z,92
2018-12-09T12:54:15.382Z,92
2018-12-09T12:55:15.817Z,92
2018-12-09T12:56:15.389Z,92
2018-12-09T12:57:15.821Z,92
2018-12-09T12:58:15.550Z,92
2018-12-09T12:59:15.857Z,92
2018-12-09T13:00:15.422Z,92
2018-12-09T13:01:15.945Z,93
2018-12-09T13:02:15.854Z,93
2018-12-09T13:03:15.855Z,93
2018-12-09T13:04:15.867Z,93
2018-12-09T13:05:15.790Z,93
2018-12-09T13:06:15.890Z,93
2018-12-09T13:07:15.575Z,93
2018-12-09T13:08:15.905Z,93
2018-12-09T13:09:16.481Z,93
2018-12-09T13:10:15.927Z,93
2018-12-09T13:11:15.455Z,93
2018-12-09T13:12:16.441Z,93
2018-12-09T13:13:15.941Z,93
2018-12-09T13:14:15.854Z,93
2018-12-09T13:15:15.945Z,93
2018-12-09T13:16:15.868Z,93
2018-12-09T13:17:15.892Z,93
2018-12-09T13:18:15.879Z,93
2018-12-09T13:19:16.519Z,93
2018-12-09T13:20:15.594Z,93
2018-12-09T13:21:15.474Z,93
2018-12-09T13:22:15.635Z,93
2018-12-09T13:23:15.427Z,93
2018-12-09T13:24:15.867Z,93
2018-12-09T13:25:15.833Z,93
2018-12-09T13:26:15.836Z,93
2018-12-09T13:27:15.488Z,93
2018-12-09T13:28:15.696Z,93
2018-12-09T13:29:17.994Z,93
2018-12-09T13:30:15.463Z,93
2018-12-09T13:31:15.656Z,93
2018-12-09T13:32:15.979Z,93
2018-12-09T13:33:15.881Z,93
2018-12-09T13:34:15.874Z,93
2018-12-09T13:35:15.513Z,93
2018-12-09T13:36:15.659Z,93
2018-12-09T13:37:15.679Z,93
2018-12-09T13:38:15.488Z,93
2018-12-09T13:39:15.908Z,93
2018-12-09T13:40:15.659Z,93
2018-12-09T13:41:15.514Z,93
2018-12-09T13:42:15.755Z,93
2018-12-09T13:43:15.670Z,93
2018-12-09T13:44:15.433Z,93
2018-12-09T13:45:15.748Z,93
2018-12-09T13:46:15.436Z,93
2018-12-09T13:47:15.490Z,93
2018-12-09T13:48:15.907Z,93
2018-12-09T13:49:16.607Z,93
2018-12-09T13:50:15.854Z,93
2018-12-09T13:51:15.924Z,93
2018-12-09T13:52:15.944Z,93
2018-12-09T13:53:15.713Z,93
2018-12-09T13:54:15.969Z,93
2018-12-09T13:55:15.760Z,93
2018-12-09T13:56:15.539Z,93
2018-12-09T13:57:15.915Z,93
2018-12-09T13:58:15.541Z,93
2018-12-09T13:59:15.685Z,93
2018-12-09T14:00:15.858Z,93
2018-12-09T14:01:16.615Z,93
2018-12-09T14:02:15.473Z,93
2018-12-09T14:03:16.052Z,93
2018-12-09T14:04:16.002Z,93
2018-12-09T14:05:15.662Z,93
2018-12-09T14:06:15.876Z,93
2018-12-09T14:07:15.526Z,93
2018-12-09T14:08:16.690Z,93
2018-12-09T14:09:15.529Z,93
2018-12-09T14:10:16.155Z,93
2018-12-09T14:11:15.715Z,93
2018-12-09T14:12:15.884Z,93
2018-12-09T14:13:15.847Z,93
2018-12-09T14:14:15.921Z,93
2018-12-09T14:15:17.256Z,93
2018-12-09T14:16:15.760Z,93
2018-12-09T14:17:16.008Z,93
2018-12-09T14:26:57.667Z,93
2018-12-09T14:27:13.142Z,93
2018-12-09T14:28:11.870Z,93
2018-12-09T14:29:11.724Z,93
2018-12-09T14:30:11.713Z,93
2018-12-09T14:31:11.732Z,93
2018-12-09T14:32:11.670Z,93
2018-12-09T14:33:11.714Z,93
2018-12-09T14:34:11.788Z,93
2018-12-09T14:36:24.360Z,93
2018-12-09T14:37:24.270Z,93
2018-12-09T14:38:24.266Z,93
2018-12-09T14:39:24.381Z,93
2018-12-09T14:40:23.889Z,93
2018-12-09T14:41:23.891Z,93
2018-12-09T14:42:24.137Z,93
2018-12-09T14:43:24.410Z,93
2018-12-09T14:44:24.416Z,93
2018-12-09T14:45:23.922Z,93
2018-12-09T14:46:25.355Z,93
2018-12-09T14:47:24.421Z,93
2018-12-09T14:48:24.376Z,93
2018-12-09T14:49:23.956Z,93
2018-12-09T14:50:23.897Z,93
2018-12-09T14:51:24.342Z,93
2018-12-09T14:52:24.154Z,93
2018-12-09T14:53:23.928Z,93
2018-12-09T14:54:23.965Z,93
2018-12-09T14:55:24.381Z,93
2018-12-09T14:56:24.630Z,93
2018-12-09T14:57:24.118Z,93
2018-12-09T14:58:24.423Z,93
2018-12-09T14:59:24.336Z,93
2018-12-09T15:00:24.395Z,93
2018-12-09T15:01:23.915Z,93
2018-12-09T15:02:24.426Z,93
2018-12-09T15:03:24.152Z,93
2018-12-09T15:04:24.440Z,93
2018-12-09T15:05:24.376Z,93
2018-12-09T15:06:25.535Z,93
2018-12-09T15:07:24.521Z,93
2018-12-09T15:08:24.167Z,93
2018-12-09T15:09:24.203Z,93
2018-12-09T15:10:24.137Z,93
2018-12-09T15:11:24.330Z,93
2018-12-09T15:12:23.996Z,93
2018-12-09T15:13:24.437Z,94
2018-12-09T15:14:24.096Z,94
2018-12-09T15:15:23.971Z,94
2018-12-09T15:16:24.221Z,94
2018-12-09T15:17:24.003Z,94
2018-12-09T15:18:24.432Z,94
2018-12-09T15:19:24.093Z,94
2018-12-09T15:20:24.150Z,94
2018-12-09T15:21:24.366Z,94
2018-12-09T15:22:24.099Z,94
2018-12-09T15:23:24.202Z,94
2018-12-09T15:24:24.573Z,94
2018-12-09T15:25:24.330Z,94
2018-12-09T15:26:23.947Z,94
2018-12-09T15:27:24.336Z,94
2018-12-09T15:28:24.390Z,94
2018-12-09T15:29:24.142Z,94
2018-12-09T15:30:25.233Z,94
2018-12-09T15:31:24.181Z,93